createdAt,value
2019-02-10T00:00:11.119Z,2.40
2019-02-10T00:01:11.547Z,2.20
2019-02-10T00:02:11.974Z,2.30
2019-02-10T00:03:12.403Z,1.60
2019-02-10T00:04:13.131Z,3.50
2019-02-10T00:05:13.558Z,2.00
2019-02-10T00:06:13.998Z,1.80
2019-02-10T00:07:14.553Z,3.00
2019-02-10T00:08:14.987Z,1.80
2019-02-10T00:09:15.465Z,2.40
2019-02-10T00:10:15.998Z,1.60
2019-02-10T00:11:16.429Z,2.10
2019-02-10T00:12:16.863Z,3.00
2019-02-10T00:13:17.303Z,2.10
2019-02-10T00:14:17.755Z,1.80
2019-02-10T00:15:18.189Z,1.20
2019-02-10T00:16:18.624Z,1.50
2019-02-10T00:17:19.153Z,1.80
2019-02-10T00:18:19.597Z,1.20
2019-02-10T00:19:20.170Z,2.40
2019-02-10T00:20:20.595Z,2.00
2019-02-10T00:21:21.036Z,2.00
2019-02-10T00:22:21.471Z,1.20
2019-02-10T00:23:21.913Z,1.30
2019-02-10T00:24:23.455Z,1.90
2019-02-10T00:25:23.900Z,1.40
2019-02-10T00:26:24.439Z,1.30
2019-02-10T00:27:24.875Z,1.20
2019-02-10T00:28:26.387Z,1.40
2019-02-10T00:29:26.845Z,1.50
2019-02-10T00:30:27.332Z,1.60
2019-02-10T00:31:27.757Z,1.60
2019-02-10T00:32:28.271Z,1.40
2019-02-10T00:33:28.698Z,1.20
2019-02-10T00:34:31.164Z,1.50
2019-02-10T00:35:31.629Z,1.70
2019-02-10T00:36:33.573Z,1.10
2019-02-10T00:37:34.165Z,2.30
2019-02-10T00:38:34.641Z,1.80
2019-02-10T00:39:35.122Z,1.40
2019-02-10T00:40:35.576Z,1.70
2019-02-10T00:41:36.009Z,1.40
2019-02-10T00:42:36.518Z,2.10
2019-02-10T00:43:36.965Z,1.80
2019-02-10T00:44:37.488Z,1.80
2019-02-10T00:45:37.930Z,1.00
2019-02-10T00:46:38.375Z,2.00
2019-02-10T00:47:38.811Z,2.50
2019-02-10T00:48:39.310Z,2.50
2019-02-10T00:49:39.833Z,1.30
2019-02-10T00:50:40.351Z,1.90
2019-02-10T00:51:40.792Z,1.50
2019-02-10T00:52:41.281Z,2.00
2019-02-10T00:53:41.718Z,2.20
2019-02-10T00:54:42.254Z,2.40
2019-02-10T00:55:42.710Z,2.70
2019-02-10T00:56:43.254Z,2.20
2019-02-10T00:57:43.691Z,1.90
2019-02-10T00:58:44.188Z,2.00
2019-02-10T00:59:44.648Z,1.70
2019-02-10T01:00:45.123Z,1.50
2019-02-10T01:01:45.569Z,1.90
2019-02-10T01:02:46.057Z,1.40
2019-02-10T01:03:46.493Z,1.90
2019-02-10T01:04:47.027Z,2.70
2019-02-10T01:05:47.463Z,1.80
2019-02-10T01:06:47.925Z,1.40
2019-02-10T01:07:48.355Z,1.20
2019-02-10T01:08:48.859Z,2.40
2019-02-10T01:09:49.317Z,2.40
2019-02-10T01:10:49.797Z,4.60
2019-02-10T01:11:50.233Z,2.10
2019-02-10T01:12:50.731Z,1.90
2019-02-10T01:13:51.167Z,3.90
2019-02-10T01:14:51.810Z,1.70
2019-02-10T01:15:52.277Z,2.40
2019-02-10T01:16:52.802Z,1.60
2019-02-10T01:17:53.256Z,2.00
2019-02-10T01:18:53.738Z,1.60
2019-02-10T01:19:54.192Z,1.00
2019-02-10T01:20:54.672Z,1.60
2019-02-10T01:21:55.114Z,1.30
2019-02-10T01:22:55.607Z,3.10
2019-02-10T01:23:56.044Z,1.80
2019-02-10T01:24:56.594Z,1.20
2019-02-10T01:25:57.045Z,1.70
2019-02-10T01:26:58.602Z,1.60
2019-02-10T01:27:59.041Z,1.00
2019-02-10T01:28:59.536Z,1.30
2019-02-10T01:29:59.997Z,2.00
2019-02-10T01:31:00.473Z,2.50
2019-02-10T01:32:00.908Z,1.50
2019-02-10T01:33:01.408Z,2.40
2019-02-10T01:34:01.851Z,1.40
2019-02-10T01:35:03.412Z,1.10
2019-02-10T01:36:03.857Z,0.80
2019-02-10T01:37:04.404Z,1.50
2019-02-10T01:38:05.461Z,2.60
2019-02-10T01:39:07.286Z,2.30
2019-02-10T01:40:07.746Z,1.80
2019-02-10T01:41:08.221Z,1.80
2019-02-10T01:42:08.647Z,1.80
2019-02-10T01:43:09.160Z,1.80
2019-02-10T01:44:09.597Z,2.00
2019-02-10T01:45:10.130Z,1.30
2019-02-10T01:46:10.584Z,1.80
2019-02-10T01:47:11.128Z,1.20
2019-02-10T01:48:11.566Z,3.00
2019-02-10T01:49:13.088Z,2.10
2019-02-10T01:50:13.543Z,2.10
2019-02-10T01:51:14.013Z,1.00
2019-02-10T01:52:14.460Z,1.60
2019-02-10T01:53:14.918Z,1.20
2019-02-10T01:54:15.470Z,1.40
2019-02-10T01:55:15.918Z,1.30
2019-02-10T01:56:16.403Z,2.80
2019-02-10T01:57:16.831Z,1.70
2019-02-10T01:58:17.335Z,2.80
2019-02-10T01:59:17.779Z,3.40
2019-02-10T02:00:18.308Z,3.50
2019-02-10T02:01:18.748Z,2.40
2019-02-10T02:02:19.211Z,2.80
2019-02-10T02:03:19.644Z,2.10
2019-02-10T02:04:20.142Z,1.50
2019-02-10T02:05:20.597Z,2.20
2019-02-10T02:06:21.179Z,1.50
2019-02-10T02:07:21.608Z,1.60
2019-02-10T02:08:22.113Z,1.90
2019-02-10T02:09:22.548Z,1.60
2019-02-10T02:10:23.185Z,1.90
2019-02-10T02:11:23.623Z,1.50
2019-02-10T02:12:24.056Z,1.80
2019-02-10T02:13:24.603Z,1.80
2019-02-10T02:14:25.028Z,2.10
2019-02-10T02:15:25.570Z,1.50
2019-02-10T02:16:25.997Z,2.60
2019-02-10T02:17:26.523Z,2.60
2019-02-10T02:18:26.963Z,3.00
2019-02-10T02:19:27.513Z,2.90
2019-02-10T02:20:27.964Z,2.30
2019-02-10T02:21:28.449Z,2.20
2019-02-10T02:22:28.880Z,1.80
2019-02-10T02:23:29.392Z,1.80
2019-02-10T02:24:29.828Z,1.50
2019-02-10T02:25:30.346Z,1.80
2019-02-10T02:26:30.788Z,1.80
2019-02-10T02:27:31.245Z,1.40
2019-02-10T02:28:31.673Z,1.60
2019-02-10T02:29:32.179Z,1.00
2019-02-10T02:30:32.636Z,1.60
2019-02-10T02:31:33.117Z,1.70
2019-02-10T02:32:33.568Z,1.70
2019-02-10T02:33:34.048Z,1.60
2019-02-10T02:34:34.486Z,1.30
2019-02-10T02:35:35.020Z,1.00
2019-02-10T02:36:35.456Z,2.00
2019-02-10T02:37:35.921Z,1.70
2019-02-10T02:38:36.360Z,1.30
2019-02-10T02:39:36.853Z,1.30
2019-02-10T02:40:37.517Z,2.30
2019-02-10T02:41:38.043Z,3.20
2019-02-10T02:42:38.497Z,2.10
2019-02-10T02:43:39.028Z,1.60
2019-02-10T02:44:39.475Z,1.10
2019-02-10T02:45:40.003Z,2.30
2019-02-10T02:46:40.445Z,2.40
2019-02-10T02:47:41.008Z,2.30
2019-02-10T02:48:41.449Z,1.90
2019-02-10T02:49:41.936Z,1.60
2019-02-10T02:50:42.387Z,2.40
2019-02-10T02:51:42.873Z,1.70
2019-02-10T02:52:43.338Z,2.20
2019-02-10T02:53:43.907Z,3.00
2019-02-10T02:54:44.362Z,1.90
2019-02-10T02:55:45.084Z,1.90
2019-02-10T02:56:45.527Z,1.70
2019-02-10T02:57:45.987Z,2.30
2019-02-10T02:58:46.421Z,1.70
2019-02-10T02:59:46.918Z,1.40
2019-02-10T03:00:47.380Z,2.70
2019-02-10T03:01:48.159Z,1.90
2019-02-10T03:02:48.598Z,2.10
2019-02-10T03:03:49.091Z,1.80
2019-02-10T03:04:49.516Z,2.70
2019-02-10T03:05:50.199Z,1.90
2019-02-10T03:06:50.654Z,2.10
2019-02-10T03:07:51.209Z,2.00
2019-02-10T03:08:51.645Z,1.50
2019-02-10T03:09:52.100Z,2.10
2019-02-10T03:10:52.628Z,1.00
2019-02-10T03:11:53.141Z,2.00
2019-02-10T03:12:53.581Z,2.90
2019-02-10T03:13:54.073Z,1.80
2019-02-10T03:14:54.519Z,2.60
2019-02-10T03:15:55.252Z,1.70
2019-02-10T03:16:55.694Z,1.70
2019-02-10T03:17:56.863Z,1.90
2019-02-10T03:18:57.301Z,1.10
2019-02-10T03:19:57.799Z,1.10
2019-02-10T03:20:58.390Z,1.90
2019-02-10T03:21:58.935Z,2.10
2019-02-10T03:22:59.368Z,1.20
2019-02-10T03:23:59.877Z,1.30
2019-02-10T03:25:00.511Z,1.80
2019-02-10T03:26:01.151Z,1.50
2019-02-10T03:27:01.585Z,1.20
2019-02-10T03:28:04.096Z,0.80
2019-02-10T03:29:04.534Z,0.80
2019-02-10T03:30:05.038Z,1.10
2019-02-10T03:31:05.523Z,2.50
2019-02-10T03:32:06.085Z,0.70
2019-02-10T03:33:06.545Z,1.50
2019-02-10T03:34:07.105Z,0.80
2019-02-10T03:35:07.541Z,1.40
2019-02-10T03:36:08.178Z,1.80
2019-02-10T03:37:08.605Z,1.50
2019-02-10T03:38:09.075Z,1.10
2019-02-10T03:39:09.565Z,1.00
2019-02-10T03:40:10.113Z,1.10
2019-02-10T03:41:10.586Z,1.80
2019-02-10T03:42:11.050Z,2.70
2019-02-10T03:43:11.483Z,2.00
2019-02-10T03:44:11.985Z,2.00
2019-02-10T03:45:12.425Z,2.20
2019-02-10T03:46:12.962Z,1.90
2019-02-10T03:47:13.418Z,1.00
2019-02-10T03:48:13.958Z,1.70
2019-02-10T03:49:14.393Z,1.20
2019-02-10T03:50:14.889Z,1.50
2019-02-10T03:51:16.175Z,1.80
2019-02-10T03:52:16.646Z,2.80
2019-02-10T03:53:17.070Z,2.50
2019-02-10T03:54:17.580Z,1.20
2019-02-10T03:55:18.021Z,1.20
2019-02-10T03:56:18.545Z,1.80
2019-02-10T03:57:18.987Z,1.00
2019-02-10T03:58:19.547Z,1.60
2019-02-10T03:59:19.990Z,1.70
2019-02-10T04:00:20.483Z,1.60
2019-02-10T04:01:21.060Z,1.20
2019-02-10T04:02:21.630Z,1.50
2019-02-10T04:03:22.060Z,1.10
2019-02-10T04:04:23.069Z,1.30
2019-02-10T04:05:23.512Z,0.70
2019-02-10T04:06:24.039Z,0.70
2019-02-10T04:07:24.486Z,1.00
2019-02-10T04:08:25.053Z,1.50
2019-02-10T04:09:25.563Z,1.90
2019-02-10T04:10:26.081Z,1.60
2019-02-10T04:11:26.533Z,1.60
2019-02-10T04:12:27.012Z,2.20
2019-02-10T04:13:27.561Z,1.10
2019-02-10T04:14:28.052Z,0.80
2019-02-10T04:15:28.484Z,1.40
2019-02-10T04:16:29.021Z,1.30
2019-02-10T04:17:29.465Z,2.20
2019-02-10T04:18:29.921Z,2.20
2019-02-10T04:19:30.367Z,1.80
2019-02-10T04:20:30.857Z,2.80
2019-02-10T04:21:32.158Z,1.70
2019-02-10T04:22:32.711Z,1.70
2019-02-10T04:23:33.138Z,1.60
2019-02-10T04:24:33.644Z,1.90
2019-02-10T04:25:34.075Z,2.20
2019-02-10T04:26:34.614Z,1.70
2019-02-10T04:27:35.042Z,2.10
2019-02-10T04:28:35.513Z,1.40
2019-02-10T04:29:35.950Z,2.50
2019-02-10T04:30:36.462Z,1.10
2019-02-10T04:31:36.931Z,2.20
2019-02-10T04:32:37.478Z,1.40
2019-02-10T04:33:37.919Z,1.60
2019-02-10T04:34:38.420Z,1.50
2019-02-10T04:35:38.860Z,2.40
2019-02-10T04:36:39.398Z,2.10
2019-02-10T04:37:45.615Z,1.10
2019-02-10T04:38:46.939Z,1.20
2019-02-10T04:39:47.373Z,1.50
2019-02-10T04:40:47.875Z,1.70
2019-02-10T04:41:48.322Z,1.50
2019-02-10T04:42:48.808Z,0.70
2019-02-10T04:43:49.239Z,0.90
2019-02-10T04:44:49.748Z,0.80
2019-02-10T04:45:50.195Z,0.70
2019-02-10T04:46:50.710Z,1.10
2019-02-10T04:47:51.139Z,1.20
2019-02-10T04:48:51.623Z,1.10
2019-02-10T04:49:52.161Z,1.50
2019-02-10T04:50:52.656Z,0.90
2019-02-10T04:51:53.108Z,1.90
2019-02-10T04:52:53.590Z,2.00
2019-02-10T04:53:54.030Z,1.00
2019-02-10T04:54:54.526Z,1.20
2019-02-10T04:55:54.956Z,0.80
2019-02-10T04:56:55.492Z,1.30
2019-02-10T04:57:55.915Z,1.10
2019-02-10T04:58:56.392Z,1.30
2019-02-10T04:59:56.822Z,1.50
2019-02-10T05:00:57.936Z,1.70
2019-02-10T05:01:58.402Z,2.00
2019-02-10T05:02:58.873Z,1.40
2019-02-10T05:03:59.337Z,1.10
2019-02-10T05:04:59.804Z,1.60
2019-02-10T05:06:00.231Z,2.00
2019-02-10T05:07:00.774Z,1.40
2019-02-10T05:08:01.219Z,1.50
2019-02-10T05:09:01.677Z,1.80
2019-02-10T05:10:02.113Z,1.30
2019-02-10T05:11:02.617Z,1.30
2019-02-10T05:12:03.090Z,1.30
2019-02-10T05:13:03.549Z,1.40
2019-02-10T05:14:04.804Z,2.20
2019-02-10T05:15:05.299Z,4.10
2019-02-10T05:16:05.758Z,2.30
2019-02-10T05:17:06.266Z,1.90
2019-02-10T05:18:06.699Z,1.90
2019-02-10T05:19:07.167Z,1.90
2019-02-10T05:20:07.605Z,2.10
2019-02-10T05:21:08.104Z,2.20
2019-02-10T05:22:08.570Z,2.10
2019-02-10T05:23:09.547Z,1.20
2019-02-10T05:24:09.976Z,2.40
2019-02-10T05:25:10.484Z,1.90
2019-02-10T05:26:10.913Z,1.30
2019-02-10T05:27:11.457Z,2.40
2019-02-10T05:28:11.888Z,2.30
2019-02-10T05:29:12.351Z,1.80
2019-02-10T05:30:12.800Z,2.00
2019-02-10T05:31:13.288Z,1.10
2019-02-10T05:32:14.011Z,1.60
2019-02-10T05:33:14.526Z,1.60
2019-02-10T05:34:14.963Z,1.80
2019-02-10T05:35:15.465Z,2.30
2019-02-10T05:36:15.898Z,1.30
2019-02-10T05:37:16.544Z,1.50
2019-02-10T05:38:17.005Z,1.80
2019-02-10T05:39:17.562Z,2.00
2019-02-10T05:40:18.029Z,1.30
2019-02-10T05:41:18.572Z,2.10
2019-02-10T05:42:19.034Z,1.00
2019-02-10T05:43:19.512Z,1.50
2019-02-10T05:44:19.969Z,1.90
2019-02-10T05:45:20.443Z,1.70
2019-02-10T05:46:20.887Z,1.50
2019-02-10T05:47:21.542Z,1.30
2019-02-10T05:48:21.981Z,0.80
2019-02-10T05:49:23.543Z,1.00
2019-02-10T05:50:24.164Z,0.80
2019-02-10T05:51:24.685Z,1.80
2019-02-10T05:52:25.141Z,1.90
2019-02-10T05:53:25.620Z,1.30
2019-02-10T05:54:26.072Z,1.30
2019-02-10T05:55:26.564Z,1.40
2019-02-10T05:56:27.011Z,1.50
2019-02-10T05:57:27.517Z,2.30
2019-02-10T05:58:27.951Z,2.40
2019-02-10T05:59:28.425Z,1.20
2019-02-10T06:00:28.900Z,1.30
2019-02-10T06:01:29.361Z,1.70
2019-02-10T06:02:29.819Z,1.40
2019-02-10T06:03:30.288Z,1.80
2019-02-10T06:04:30.754Z,1.10
2019-02-10T06:05:31.233Z,1.20
2019-02-10T06:06:31.799Z,1.30
2019-02-10T06:07:32.297Z,2.30
2019-02-10T06:08:32.733Z,1.30
2019-02-10T06:09:33.185Z,1.10
2019-02-10T06:10:33.622Z,0.90
2019-02-10T06:11:34.135Z,1.00
2019-02-10T06:12:34.601Z,1.00
2019-02-10T06:13:35.071Z,0.90
2019-02-10T06:14:35.503Z,1.00
2019-02-10T06:15:36.031Z,1.10
2019-02-10T06:16:36.469Z,0.70
2019-02-10T06:17:36.967Z,1.20
2019-02-10T06:18:37.406Z,1.40
2019-02-10T06:19:37.881Z,0.70
2019-02-10T06:20:38.309Z,1.60
2019-02-10T06:21:38.803Z,0.90
2019-02-10T06:22:39.456Z,0.90
2019-02-10T06:23:39.940Z,1.00
2019-02-10T06:24:40.375Z,0.90
2019-02-10T06:25:41.587Z,0.80
2019-02-10T06:26:42.020Z,1.40
2019-02-10T06:27:42.557Z,2.20
2019-02-10T06:28:42.995Z,0.80
2019-02-10T06:29:43.456Z,2.00
2019-02-10T06:30:43.883Z,2.20
2019-02-10T06:31:44.391Z,1.30
2019-02-10T06:32:44.849Z,1.00
2019-02-10T06:33:45.324Z,1.00
2019-02-10T06:34:45.765Z,1.40
2019-02-10T06:35:46.261Z,0.80
2019-02-10T06:36:46.701Z,1.30
2019-02-10T06:37:47.213Z,0.70
2019-02-10T06:38:47.640Z,0.70
2019-02-10T06:39:48.137Z,1.30
2019-02-10T06:40:48.575Z,1.00
2019-02-10T06:41:49.065Z,0.80
2019-02-10T06:42:49.531Z,1.10
2019-02-10T06:43:50.000Z,0.90
2019-02-10T06:44:50.442Z,1.10
2019-02-10T06:45:50.933Z,0.90
2019-02-10T06:46:51.381Z,0.60
2019-02-10T06:47:51.907Z,0.70
2019-02-10T06:48:52.344Z,0.90
2019-02-10T06:49:52.801Z,1.60
2019-02-10T06:50:53.145Z,1.20
2019-02-10T06:51:53.634Z,0.80
2019-02-10T06:52:54.139Z,1.60
2019-02-10T06:53:54.671Z,0.90
2019-02-10T06:54:55.139Z,1.70
2019-02-10T06:55:55.606Z,0.70
2019-02-10T06:56:56.034Z,1.10
2019-02-10T06:57:56.504Z,1.00
2019-02-10T06:58:56.941Z,0.80
2019-02-10T06:59:57.371Z,0.80
2019-02-10T07:00:57.810Z,0.80
2019-02-10T07:01:58.250Z,0.70
2019-02-10T07:02:58.657Z,0.70
2019-02-10T07:03:59.102Z,1.20
2019-02-10T07:04:59.539Z,1.00
2019-02-10T07:05:59.975Z,1.00
2019-02-10T07:07:00.410Z,0.80
2019-02-10T07:08:00.869Z,0.80
2019-02-10T07:09:01.302Z,0.80
2019-02-10T07:10:01.737Z,0.80
2019-02-10T07:11:02.177Z,0.80
2019-02-10T07:12:02.758Z,0.80
2019-02-10T07:13:03.227Z,1.30
2019-02-10T07:14:03.673Z,1.10
2019-02-10T07:15:04.114Z,1.10
2019-02-10T07:16:04.555Z,1.00
2019-02-10T07:17:04.990Z,1.00
2019-02-10T07:18:05.440Z,1.40
2019-02-10T07:19:05.884Z,0.90
2019-02-10T07:20:06.350Z,1.20
2019-02-10T07:21:06.783Z,1.00
2019-02-10T07:22:07.279Z,1.30
2019-02-10T07:23:07.742Z,0.90
2019-02-10T07:24:08.194Z,1.30
2019-02-10T07:25:08.634Z,0.80
2019-02-10T07:26:09.069Z,0.90
2019-02-10T07:27:09.499Z,0.90
2019-02-10T07:28:09.979Z,1.40
2019-02-10T07:29:10.471Z,1.50
2019-02-10T07:30:10.932Z,1.20
2019-02-10T07:31:11.539Z,1.10
2019-02-10T07:32:11.983Z,1.40
2019-02-10T07:33:12.438Z,1.40
2019-02-10T07:34:12.889Z,1.00
2019-02-10T07:35:13.329Z,1.20
2019-02-10T07:36:13.826Z,1.20
2019-02-10T07:37:14.263Z,0.80
2019-02-10T07:38:15.234Z,1.10
2019-02-10T07:39:15.725Z,0.90
2019-02-10T07:40:16.216Z,0.80
2019-02-10T07:41:16.656Z,1.20
2019-02-10T07:42:17.372Z,0.90
2019-02-10T07:43:17.844Z,1.90
2019-02-10T07:44:18.388Z,1.70
2019-02-10T07:45:19.379Z,0.80
2019-02-10T07:46:20.854Z,0.80
2019-02-10T07:47:21.291Z,1.00
2019-02-10T07:48:21.829Z,0.90
2019-02-10T07:49:22.255Z,1.00
2019-02-10T07:50:22.685Z,0.80
2019-02-10T07:51:23.123Z,0.90
2019-02-10T07:52:23.558Z,0.90
2019-02-10T07:53:24.035Z,0.90
2019-02-10T07:54:24.473Z,1.10
2019-02-10T07:55:24.910Z,1.20
2019-02-10T07:56:25.402Z,1.00
2019-02-10T07:57:25.838Z,1.00
2019-02-10T07:58:26.310Z,0.90
2019-02-10T07:59:27.076Z,0.80
2019-02-10T08:00:27.608Z,0.90
2019-02-10T08:01:28.045Z,0.90
2019-02-10T08:02:28.482Z,1.10
2019-02-10T08:03:29.110Z,1.80
2019-02-10T08:04:29.559Z,1.00
2019-02-10T08:05:30.003Z,0.80
2019-02-10T08:06:30.454Z,1.50
2019-02-10T08:07:31.425Z,1.00
2019-02-10T08:08:31.908Z,1.10
2019-02-10T08:09:32.369Z,0.90
2019-02-10T08:10:32.803Z,0.90
2019-02-10T08:11:33.230Z,1.20
2019-02-10T08:12:33.661Z,0.90
2019-02-10T08:13:34.116Z,1.20
2019-02-10T08:14:34.558Z,0.80
2019-02-10T08:15:34.992Z,1.00
2019-02-10T08:16:35.432Z,1.30
2019-02-10T08:17:35.873Z,1.20
2019-02-10T08:18:36.344Z,0.90
2019-02-10T08:19:36.778Z,1.60
2019-02-10T08:20:37.222Z,1.00
2019-02-10T08:21:37.669Z,1.10
2019-02-10T08:22:38.124Z,1.00
2019-02-10T08:23:38.616Z,0.90
2019-02-10T08:24:39.075Z,1.60
2019-02-10T08:25:39.507Z,0.90
2019-02-10T08:26:39.959Z,0.90
2019-02-10T08:27:40.413Z,1.00
2019-02-10T08:28:41.204Z,0.80
2019-02-10T08:29:42.705Z,1.10
2019-02-10T08:30:43.229Z,1.00
2019-02-10T08:31:43.671Z,1.40
2019-02-10T08:32:44.115Z,1.00
2019-02-10T08:33:44.741Z,1.20
2019-02-10T08:34:45.183Z,0.80
2019-02-10T08:35:45.639Z,0.80
2019-02-10T08:36:46.070Z,1.00
2019-02-10T08:37:46.518Z,1.10
2019-02-10T08:38:54.248Z,1.20
2019-02-10T08:39:53.405Z,1.10
2019-02-10T08:40:53.850Z,1.20
2019-02-10T08:41:54.284Z,0.90
2019-02-10T08:42:54.803Z,1.00
2019-02-10T08:43:55.260Z,0.80
2019-02-10T08:44:55.706Z,0.80
2019-02-10T08:45:56.156Z,0.80
2019-02-10T08:46:56.598Z,0.90
2019-02-10T08:47:57.104Z,1.10
2019-02-10T08:48:57.605Z,1.00
2019-02-10T08:49:58.155Z,0.90
2019-02-10T08:50:58.894Z,1.30
2019-02-10T08:51:59.378Z,1.30
2019-02-10T08:52:59.812Z,0.90
2019-02-10T08:54:00.293Z,0.80
2019-02-10T08:55:02.472Z,1.00
2019-02-10T08:56:03.022Z,0.80
2019-02-10T08:57:03.563Z,1.10
2019-02-10T08:58:04.014Z,0.90
2019-02-10T08:59:04.506Z,1.10
2019-02-10T09:00:04.962Z,0.80
2019-02-10T09:01:05.420Z,0.90
2019-02-10T09:02:05.859Z,0.90
2019-02-10T09:03:06.285Z,0.90
2019-02-10T09:04:06.729Z,1.00
2019-02-10T09:05:07.159Z,0.90
2019-02-10T09:06:07.600Z,0.90
2019-02-10T09:07:08.032Z,1.30
2019-02-10T09:08:08.500Z,0.90
2019-02-10T09:09:08.997Z,0.80
2019-02-10T09:10:09.467Z,0.80
2019-02-10T09:11:09.922Z,1.00
2019-02-10T09:12:10.360Z,1.40
2019-02-10T09:13:10.793Z,0.80
2019-02-10T09:14:11.352Z,0.80
2019-02-10T09:15:11.793Z,0.80
2019-02-10T09:16:12.246Z,0.80
2019-02-10T09:17:12.677Z,0.70
2019-02-10T09:18:13.400Z,0.80
2019-02-10T09:19:14.657Z,0.80
2019-02-10T09:20:15.116Z,0.90
2019-02-10T09:21:15.556Z,0.80
2019-02-10T09:22:16.180Z,0.80
2019-02-10T09:23:16.618Z,0.80
2019-02-10T09:24:17.072Z,0.80
2019-02-10T09:25:17.499Z,0.80
2019-02-10T09:26:17.953Z,0.80
2019-02-10T09:27:18.389Z,1.50
2019-02-10T09:28:18.888Z,0.90
2019-02-10T09:29:19.344Z,0.80
2019-02-10T09:30:20.849Z,1.00
2019-02-10T09:31:21.282Z,0.90
2019-02-10T09:32:21.782Z,0.80
2019-02-10T09:33:22.214Z,0.80
2019-02-10T09:34:22.756Z,0.80
2019-02-10T09:35:23.196Z,1.00
2019-02-10T09:36:23.631Z,0.90
2019-02-10T09:37:24.075Z,0.80
2019-02-10T09:38:24.515Z,0.90
2019-02-10T09:39:26.172Z,0.80
2019-02-10T09:40:26.610Z,0.70
2019-02-10T09:41:27.169Z,0.70
2019-02-10T09:42:27.625Z,0.80
2019-02-10T09:43:29.125Z,0.90
2019-02-10T09:44:29.571Z,0.90
2019-02-10T09:45:30.018Z,0.70
2019-02-10T09:46:30.481Z,0.80
2019-02-10T09:47:30.928Z,0.80
2019-02-10T09:48:31.416Z,0.90
2019-02-10T09:49:31.893Z,0.90
2019-02-10T09:50:32.347Z,0.80
2019-02-10T09:51:32.787Z,1.00
2019-02-10T09:52:33.223Z,0.70
2019-02-10T09:53:33.652Z,0.80
2019-02-10T09:54:34.114Z,0.80
2019-02-10T09:55:34.552Z,0.80
2019-02-10T09:56:35.052Z,0.80
2019-02-10T09:57:35.494Z,0.90
2019-02-10T09:58:35.987Z,0.80
2019-02-10T09:59:36.639Z,0.90
2019-02-10T10:00:38.152Z,0.90
2019-02-10T10:01:38.592Z,0.80
2019-02-10T10:02:39.692Z,0.90
2019-02-10T10:03:40.127Z,0.80
2019-02-10T10:04:40.573Z,0.90
2019-02-10T10:05:41.105Z,0.80
2019-02-10T10:06:41.435Z,0.90
2019-02-10T10:07:43.989Z,0.80
2019-02-10T10:08:44.415Z,0.80
2019-02-10T10:09:44.871Z,1.00
2019-02-10T10:10:45.340Z,1.00
2019-02-10T10:11:45.777Z,0.80
2019-02-10T10:12:46.218Z,1.10
2019-02-10T10:13:46.666Z,0.90
2019-02-10T10:14:47.256Z,0.90
2019-02-10T10:15:47.689Z,0.80
2019-02-10T10:16:48.147Z,0.90
2019-02-10T10:17:48.581Z,0.90
2019-02-10T10:18:49.078Z,0.80
2019-02-10T10:19:49.568Z,0.80
2019-02-10T10:20:50.111Z,0.90
2019-02-10T10:21:50.548Z,0.90
2019-02-10T10:22:51.053Z,0.80
2019-02-10T10:23:51.491Z,0.90
2019-02-10T10:24:51.956Z,0.90
2019-02-10T10:25:52.404Z,0.80
2019-02-10T10:26:52.863Z,0.90
2019-02-10T10:27:54.362Z,0.80
2019-02-10T10:28:54.793Z,0.70
2019-02-10T10:29:55.332Z,1.00
2019-02-10T10:30:55.760Z,0.80
2019-02-10T10:31:56.193Z,0.90
2019-02-10T10:32:56.645Z,0.80
2019-02-10T10:33:57.082Z,0.80
2019-02-10T10:34:57.617Z,0.90
2019-02-10T10:35:58.046Z,0.90
2019-02-10T10:36:58.515Z,0.80
2019-02-10T10:37:58.969Z,0.80
2019-02-10T10:38:59.452Z,0.90
2019-02-10T10:39:59.926Z,0.80
2019-02-10T10:41:09.360Z,0.80
2019-02-10T10:42:09.798Z,0.90
2019-02-10T10:43:10.262Z,0.90
2019-02-10T10:44:10.720Z,0.90
2019-02-10T10:45:11.263Z,1.00
2019-02-10T10:46:11.701Z,1.00
2019-02-10T10:47:12.155Z,1.10
2019-02-10T10:48:12.601Z,0.90
2019-02-10T10:49:13.090Z,0.80
2019-02-10T10:50:13.547Z,1.00
2019-02-10T10:51:14.026Z,0.90
2019-02-10T10:52:14.483Z,0.90
2019-02-10T10:53:14.917Z,0.80
2019-02-10T10:54:15.377Z,1.00
2019-02-10T10:55:15.874Z,0.80
2019-02-10T10:56:16.419Z,0.80
2019-02-10T10:57:16.870Z,0.90
2019-02-10T10:58:17.352Z,0.80
2019-02-10T10:59:17.813Z,0.80
2019-02-10T11:00:18.530Z,0.80
2019-02-10T11:01:25.092Z,1.00
2019-02-10T11:02:25.382Z,0.80
2019-02-10T11:03:25.817Z,0.80
2019-02-10T11:04:26.248Z,0.80
2019-02-10T11:05:26.776Z,0.90
2019-02-10T11:06:27.208Z,0.80
2019-02-10T11:07:27.651Z,0.80
2019-02-10T11:08:28.104Z,0.70
2019-02-10T11:09:35.369Z,0.80
2019-02-10T11:10:34.957Z,0.70
2019-02-10T11:11:35.396Z,0.80
2019-02-10T11:12:35.842Z,0.90
2019-02-10T11:13:36.279Z,0.80
2019-02-10T11:14:36.814Z,1.00
2019-02-10T11:15:37.299Z,0.80
2019-02-10T11:16:37.741Z,0.80
2019-02-10T11:17:38.181Z,0.80
2019-02-10T11:18:38.685Z,0.70
2019-02-10T11:19:39.111Z,0.80
2019-02-10T11:20:39.581Z,0.80
2019-02-10T11:21:40.013Z,0.80
2019-02-10T11:22:40.766Z,1.00
2019-02-10T11:23:42.601Z,0.80
2019-02-10T11:24:43.097Z,0.80
2019-02-10T11:25:43.564Z,0.80
2019-02-10T11:26:44.009Z,0.90
2019-02-10T11:27:44.449Z,0.90
2019-02-10T11:28:45.000Z,0.80
2019-02-10T11:29:45.449Z,0.80
2019-02-10T11:30:45.939Z,0.80
2019-02-10T11:31:46.368Z,0.80
2019-02-10T11:32:46.872Z,0.80
2019-02-10T11:33:47.319Z,0.80
2019-02-10T11:34:47.764Z,1.00
2019-02-10T11:35:48.298Z,0.90
2019-02-10T11:36:48.740Z,0.70
2019-02-10T11:37:49.173Z,0.90
2019-02-10T11:38:49.620Z,0.80
2019-02-10T11:39:50.244Z,0.90
2019-02-10T11:40:51.054Z,0.90
2019-02-10T11:41:51.541Z,0.80
2019-02-10T11:42:52.060Z,0.80
2019-02-10T11:43:52.491Z,1.10
2019-02-10T11:44:53.014Z,0.80
2019-02-10T11:45:53.489Z,0.80
2019-02-10T11:46:53.974Z,0.80
2019-02-10T11:47:54.419Z,0.80
2019-02-10T11:48:54.859Z,1.20
2019-02-10T11:50:02.860Z,0.80
2019-02-10T11:51:03.309Z,0.80
2019-02-10T11:52:03.740Z,0.70
2019-02-10T11:53:04.211Z,0.80
2019-02-10T11:54:04.651Z,0.80
2019-02-10T11:55:05.094Z,0.80
2019-02-10T11:56:05.551Z,0.90
2019-02-10T11:57:06.288Z,0.80
2019-02-10T11:58:06.723Z,0.90
2019-02-10T11:59:07.177Z,0.90
2019-02-10T12:00:07.616Z,0.90
2019-02-10T12:01:08.112Z,0.80
2019-02-10T12:02:08.563Z,0.90
2019-02-10T12:03:09.001Z,0.90
2019-02-10T12:04:09.445Z,1.70
2019-02-10T12:05:09.890Z,0.80
2019-02-10T12:06:10.359Z,0.80
2019-02-10T12:07:10.838Z,0.90
2019-02-10T12:08:11.282Z,0.70
2019-02-10T12:09:11.744Z,0.80
2019-02-10T12:10:12.212Z,0.80
2019-02-10T12:11:12.670Z,0.80
2019-02-10T12:12:13.155Z,1.00
2019-02-10T12:13:13.654Z,1.70
2019-02-10T12:14:14.088Z,0.70
2019-02-10T12:15:14.518Z,0.70
2019-02-10T12:16:14.962Z,0.80
2019-02-10T12:17:15.408Z,1.00
2019-02-10T12:18:15.834Z,1.00
2019-02-10T12:19:16.281Z,0.90
2019-02-10T12:20:16.729Z,0.80
2019-02-10T12:21:17.231Z,0.90
2019-02-10T12:22:17.678Z,1.00
2019-02-10T12:23:18.116Z,0.90
2019-02-10T12:24:18.560Z,0.90
2019-02-10T12:25:19.010Z,1.00
2019-02-10T12:26:19.483Z,0.90
2019-02-10T12:27:20.408Z,0.90
2019-02-10T12:28:20.858Z,0.90
2019-02-10T12:29:21.294Z,1.00
2019-02-10T12:30:21.725Z,0.90
2019-02-10T12:31:22.215Z,1.00
2019-02-10T12:32:22.652Z,1.10
2019-02-10T12:33:23.115Z,1.20
2019-02-10T12:34:23.536Z,0.90
2019-02-10T12:35:24.041Z,1.10
2019-02-10T12:36:24.499Z,1.10
2019-02-10T12:37:32.303Z,1.20
2019-02-10T12:38:31.374Z,1.30
2019-02-10T12:39:31.853Z,1.30
2019-02-10T12:40:32.295Z,1.50
2019-02-10T12:41:32.842Z,1.40
2019-02-10T12:42:33.278Z,1.40
2019-02-10T12:43:33.824Z,1.30
2019-02-10T12:44:34.255Z,1.30
2019-02-10T12:45:34.764Z,1.20
2019-02-10T12:46:35.226Z,1.50
2019-02-10T12:47:35.697Z,1.60
2019-02-10T12:48:36.142Z,1.50
2019-02-10T12:49:36.632Z,1.40
2019-02-10T12:50:37.074Z,1.40
2019-02-10T12:51:37.537Z,1.40
2019-02-10T12:52:37.984Z,1.40
2019-02-10T12:53:38.422Z,1.50
2019-02-10T12:54:40.978Z,1.60
2019-02-10T12:55:41.417Z,1.80
2019-02-10T12:56:43.897Z,1.80
2019-02-10T12:57:44.342Z,1.80
2019-02-10T12:58:44.786Z,2.50
2019-02-10T12:59:45.301Z,2.40
2019-02-10T13:00:45.738Z,3.00
2019-02-10T13:01:46.288Z,3.00
2019-02-10T13:02:46.736Z,2.50
2019-02-10T13:03:47.277Z,2.40
2019-02-10T13:04:47.728Z,2.70
2019-02-10T13:05:48.689Z,2.90
2019-02-10T13:06:49.288Z,2.70
2019-02-10T13:07:49.758Z,2.90
2019-02-10T13:08:50.189Z,2.70
2019-02-10T13:09:50.696Z,3.40
2019-02-10T13:10:51.133Z,3.60
2019-02-10T13:11:58.314Z,3.90
2019-02-10T13:12:58.493Z,3.30
2019-02-10T13:13:59.068Z,3.50
2019-02-10T13:14:59.503Z,3.60
2019-02-10T13:16:00.010Z,3.70
2019-02-10T13:17:00.470Z,3.60
2019-02-10T13:18:00.935Z,3.70
2019-02-10T13:19:01.381Z,4.20
2019-02-10T13:20:01.892Z,4.80
2019-02-10T13:21:02.329Z,4.20
2019-02-10T13:22:02.846Z,4.40
2019-02-10T13:23:03.292Z,5.30
2019-02-10T13:24:05.140Z,4.80
2019-02-10T13:25:05.661Z,5.00
2019-02-10T13:26:06.096Z,5.30